Check out our new PWSWeather beta!
PWSweather.com
Personal Weather Stations
Station Observations

SkegnessGB

Lat: 53.147585, Lon: 0.345774

Elevation: 18

Station Type: Fine Offset WH3080

http://www.skegnessweather.info/

High Low Average
Temperature 45.9°F7.7°C 39.7°F4.3°C 43.9°F6.6°C
Dew Point 42.5°F5.8°C 35.6°F2.0°C 40.1°F4.5°C
Winds 6.9 mph 11.1 kmh Calm Calm 3.0 mph SSE4.8 kmh SSE
Wind Gusts 8.4 mph13.5 kmh -- 5.0 mph8.0 kmh
Humidity 92% 79% 86%
Pressure 29.32 in992.9 mb 28.76 in973.9 mb -
Precipitation 0.08 in2.0 mm - -
Hour Temp Dew Point Humidity Winds Wind Gusts Pressure Precip Precip Rate Daily Precip Total
12:00 AM 45.5°F7.5°C 40.9°F4.9°C 84% 2.3 mph N3.7 kmh N 4.9 mph7.9 kmh 28.77 in974.3 mb 0.00 in0.0 mm 0.00 in0.0 mm 0.00 in0.0 mm
12:10 AM 45.5°F7.5°C 40.9°F4.9°C 84% 1.6 mph NW2.6 kmh NW 3.4 mph5.5 kmh 28.76 in973.9 mb 0.00 in0.0 mm 0.00 in0.0 mm 0.00 in0.0 mm
12:20 AM 45.5°F7.5°C 40.9°F4.9°C 84% 1.8 mph N2.9 kmh N 4.9 mph7.9 kmh 28.77 in974.3 mb 0.00 in0.0 mm 0.00 in0.0 mm 0.00 in0.0 mm
12:30 AM 45.5°F7.5°C 40.9°F4.9°C 84% 3.5 mph NNW5.6 kmh NNW 4.2 mph6.8 kmh 28.77 in974.3 mb 0.00 in0.0 mm 0.00 in0.0 mm 0.00 in0.0 mm
12:40 AM 45.5°F7.5°C 40.6°F4.8°C 83% 3.7 mph N6.0 kmh N 4.9 mph7.9 kmh 28.76 in973.9 mb 0.00 in0.0 mm 0.00 in0.0 mm 0.00 in0.0 mm
12:50 AM 45.5°F7.5°C 40.6°F4.8°C 83% 2.6 mph NNE4.2 kmh NNE 4.9 mph7.9 kmh 28.77 in974.3 mb 0.00 in0.0 mm 0.00 in0.0 mm 0.00 in0.0 mm
01:00 AM 45.5°F7.5°C 40.6°F4.8°C 83% 2.4 mph NNW3.9 kmh NNW 3.4 mph5.5 kmh 28.76 in973.9 mb 0.00 in0.0 mm 0.00 in0.0 mm 0.00 in0.0 mm
01:10 AM 45.5°F7.5°C 40.6°F4.8°C 83% 2.5 mph NW4.0 kmh NW 2.5 mph4.0 kmh 28.76 in973.9 mb 0.00 in0.0 mm 0.00 in0.0 mm 0.00 in0.0 mm
01:20 AM 45.3°F7.4°C 40.5°F4.7°C 83% 2.3 mph NNE3.7 kmh NNE 3.4 mph5.5 kmh 28.76 in973.9 mb 0.00 in0.0 mm 0.00 in0.0 mm 0.00 in0.0 mm
01:30 AM 45.3°F7.4°C 40.5°F4.7°C 83% 1.9 mph NW3.1 kmh NW 5.9 mph9.5 kmh 28.76 in973.9 mb 0.00 in0.0 mm 0.00 in0.0 mm 0.00 in0.0 mm
01:40 AM 45.3°F7.4°C 40.5°F4.7°C 83% 2.9 mph NW4.7 kmh NW 5.9 mph9.5 kmh 28.76 in973.9 mb 0.00 in0.0 mm 0.00 in0.0 mm 0.00 in0.0 mm
01:50 AM 45.3°F7.4°C 40.5°F4.7°C 83% 2.3 mph NE3.7 kmh NE 4.9 mph7.9 kmh 28.76 in973.9 mb 0.00 in0.0 mm 0.00 in0.0 mm 0.00 in0.0 mm
02:00 AM 45.1°F7.3°C 40.3°F4.6°C 83% 3.3 mph NNE5.3 kmh NNE 4.9 mph7.9 kmh 28.76 in973.9 mb 0.00 in0.0 mm 0.00 in0.0 mm 0.00 in0.0 mm
02:10 AM 45.0°F7.2°C 40.1°F4.5°C 83% 3.2 mph N5.1 kmh N 3.4 mph5.5 kmh 28.76 in973.9 mb 0.00 in0.0 mm 0.00 in0.0 mm 0.00 in0.0 mm
02:20 AM 45.0°F7.2°C 40.1°F4.5°C 83% 3.7 mph NNE6.0 kmh NNE 4.9 mph7.9 kmh 28.76 in973.9 mb 0.00 in0.0 mm 0.00 in0.0 mm 0.00 in0.0 mm
02:30 AM 44.8°F7.1°C 39.9°F4.4°C 83% 4.6 mph NNE7.4 kmh NNE 8.4 mph13.5 kmh 28.76 in973.9 mb 0.00 in0.0 mm 0.00 in0.0 mm 0.00 in0.0 mm
02:40 AM 44.8°F7.1°C 40.2°F4.6°C 84% 4.3 mph N6.9 kmh N 4.9 mph7.9 kmh 28.76 in973.9 mb 0.00 in0.0 mm 0.00 in0.0 mm 0.00 in0.0 mm
02:50 AM 45.0°F7.2°C 40.4°F4.7°C 84% 4.9 mph NNE7.9 kmh NNE 5.9 mph9.5 kmh 28.77 in974.3 mb 0.00 in0.0 mm 0.00 in0.0 mm 0.00 in0.0 mm
03:00 AM 45.0°F7.2°C 40.4°F4.7°C 84% 4.3 mph NNE6.9 kmh NNE 6.6 mph10.6 kmh 28.77 in974.3 mb 0.00 in0.0 mm 0.00 in0.0 mm 0.00 in0.0 mm
03:10 AM 45.0°F7.2°C 40.4°F4.7°C 84% 3.6 mph N5.8 kmh N 5.9 mph9.5 kmh 28.77 in974.3 mb 0.00 in0.0 mm 0.00 in0.0 mm 0.00 in0.0 mm
03:20 AM 45.0°F7.2°C 40.4°F4.7°C 84% 5.2 mph NE8.4 kmh NE 5.9 mph9.5 kmh 28.77 in974.3 mb 0.00 in0.0 mm 0.00 in0.0 mm 0.00 in0.0 mm
03:30 AM 45.1°F7.3°C 40.6°F4.8°C 84% 4.9 mph NNE7.9 kmh NNE 6.6 mph10.6 kmh 28.77 in974.3 mb 0.00 in0.0 mm 0.00 in0.0 mm 0.00 in0.0 mm
03:40 AM 45.1°F7.3°C 40.6°F4.8°C 84% 4.3 mph NNE6.9 kmh NNE 6.6 mph10.6 kmh 28.77 in974.3 mb 0.00 in0.0 mm 0.00 in0.0 mm 0.00 in0.0 mm
03:50 AM 45.1°F7.3°C 40.9°F4.9°C 85% 5.5 mph NNE8.9 kmh NNE 6.6 mph10.6 kmh 28.77 in974.3 mb 0.00 in0.0 mm 0.00 in0.0 mm 0.00 in0.0 mm
04:00 AM 45.1°F7.3°C 40.9°F4.9°C 85% 5.7 mph NNE9.2 kmh NNE 5.9 mph9.5 kmh 28.78 in974.6 mb 0.00 in0.0 mm 0.00 in0.0 mm 0.00 in0.0 mm
04:10 AM 45.1°F7.3°C 40.9°F4.9°C 85% 4.4 mph N7.1 kmh N 5.9 mph9.5 kmh 28.78 in974.6 mb 0.00 in0.0 mm 0.00 in0.0 mm 0.00 in0.0 mm
04:20 AM 45.0°F7.2°C 40.7°F4.8°C 85% 4.6 mph NE7.4 kmh NE 4.9 mph7.9 kmh 28.79 in974.9 mb 0.00 in0.0 mm 0.00 in0.0 mm 0.00 in0.0 mm
04:30 AM 45.0°F7.2°C 40.7°F4.8°C 85% 4.4 mph NE7.1 kmh NE 4.9 mph7.9 kmh 28.79 in974.9 mb 0.01 in0.3 mm 0.06 in1.5 mm 0.01 in0.3 mm
04:40 AM 45.0°F7.2°C 40.7°F4.8°C 85% 4.7 mph NE7.6 kmh NE 4.9 mph7.9 kmh 28.80 in975.3 mb 0.01 in0.3 mm 0.00 in0.0 mm 0.01 in0.3 mm
04:50 AM 45.1°F7.3°C 40.9°F4.9°C 85% 4.4 mph NE7.1 kmh NE 4.2 mph6.8 kmh 28.80 in975.3 mb 0.01 in0.3 mm 0.00 in0.0 mm 0.01 in0.3 mm
05:00 AM 45.1°F7.3°C 40.9°F4.9°C 85% 3.2 mph NE5.1 kmh NE 4.9 mph7.9 kmh 28.81 in975.6 mb 0.01 in0.3 mm 0.00 in0.0 mm 0.01 in0.3 mm
05:10 AM 45.0°F7.2°C 40.7°F4.8°C 85% 3.1 mph NE5.0 kmh NE 4.2 mph6.8 kmh 28.82 in976.0 mb 0.02 in0.5 mm 0.06 in1.5 mm 0.02 in0.5 mm
05:20 AM 44.8°F7.1°C 40.5°F4.7°C 85% 4.0 mph NE6.4 kmh NE 4.2 mph6.8 kmh 28.82 in976.0 mb 0.02 in0.5 mm 0.00 in0.0 mm 0.02 in0.5 mm
05:30 AM 44.8°F7.1°C 40.5°F4.7°C 85% 3.6 mph NNE5.8 kmh NNE 5.9 mph9.5 kmh 28.82 in976.0 mb 0.02 in0.5 mm 0.00 in0.0 mm 0.04 in1.0 mm
05:40 AM 44.8°F7.1°C 40.5°F4.7°C 85% 6.0 mph N9.7 kmh N 5.9 mph9.5 kmh 28.83 in976.3 mb 0.04 in1.0 mm 0.12 in3.0 mm 0.05 in1.3 mm
05:50 AM 44.6°F7.0°C 40.7°F4.8°C 86% 6.3 mph NNE10.1 kmh NNE 7.6 mph12.2 kmh 28.83 in976.3 mb 0.04 in1.0 mm 0.00 in0.0 mm 0.05 in1.3 mm
06:00 AM 44.6°F7.0°C 40.7°F4.8°C 86% 5.6 mph NE9.0 kmh NE 6.6 mph10.6 kmh 28.83 in976.3 mb 0.05 in1.3 mm 0.01 in0.3 mm 0.06 in1.5 mm
06:10 AM 44.6°F7.0°C 40.7°F4.8°C 86% 6.6 mph NE10.6 kmh NE 6.6 mph10.6 kmh 28.84 in976.6 mb 0.04 in1.0 mm 0.00 in0.0 mm 0.06 in1.5 mm
06:20 AM 44.6°F7.0°C 40.7°F4.8°C 86% 5.0 mph N8.0 kmh N 7.6 mph12.2 kmh 28.84 in976.6 mb 0.05 in1.3 mm 0.06 in1.5 mm 0.07 in1.8 mm
06:30 AM 44.8°F7.1°C 40.8°F4.9°C 86% 5.5 mph NNE8.9 kmh NNE 7.6 mph12.2 kmh 28.85 in977.0 mb 0.04 in1.0 mm 0.00 in0.0 mm 0.07 in1.8 mm
06:40 AM 44.8°F7.1°C 40.8°F4.9°C 86% 6.2 mph N10.0 kmh N 7.6 mph12.2 kmh 28.86 in977.3 mb 0.02 in0.5 mm 0.00 in0.0 mm 0.07 in1.8 mm
06:50 AM 44.8°F7.1°C 41.1°F5.1°C 87% 5.7 mph NE9.2 kmh NE 7.6 mph12.2 kmh 28.86 in977.3 mb 0.02 in0.5 mm 0.00 in0.0 mm 0.07 in1.8 mm
07:00 AM 44.8°F7.1°C 41.1°F5.1°C 87% 6.7 mph ENE10.8 kmh ENE 8.4 mph13.5 kmh 28.87 in977.7 mb 0.01 in0.3 mm 0.00 in0.0 mm 0.07 in1.8 mm
07:10 AM 44.8°F7.1°C 41.1°F5.1°C 87% 6.9 mph NE11.1 kmh NE 5.9 mph9.5 kmh 28.87 in977.7 mb 0.01 in0.3 mm 0.00 in0.0 mm 0.07 in1.8 mm
07:20 AM 44.8°F7.1°C 41.1°F5.1°C 87% 3.8 mph NE6.1 kmh NE 4.9 mph7.9 kmh 28.88 in978.0 mb 0.00 in0.0 mm 0.00 in0.0 mm 0.07 in1.8 mm
07:30 AM 44.8°F7.1°C 41.1°F5.1°C 87% 2.8 mph NE4.5 kmh NE 4.2 mph6.8 kmh 28.88 in978.0 mb 0.00 in0.0 mm 0.00 in0.0 mm 0.07 in1.8 mm
07:40 AM 44.6°F7.0°C 41.0°F5.0°C 87% 3.3 mph ENE5.3 kmh ENE 4.9 mph7.9 kmh 28.89 in978.3 mb 0.00 in0.0 mm 0.00 in0.0 mm 0.07 in1.8 mm
07:50 AM 44.4°F6.9°C 42.2°F5.7°C 92% 2.5 mph SE4.0 kmh SE 3.4 mph5.5 kmh 28.89 in978.3 mb 0.00 in0.0 mm 0.00 in0.0 mm 0.07 in1.8 mm
08:00 AM 44.2°F6.8°C 42.1°F5.6°C 92% 1.9 mph SW3.1 kmh SW 3.4 mph5.5 kmh 28.90 in978.7 mb 0.01 in0.3 mm 0.01 in0.3 mm 0.08 in2.0 mm
08:10 AM 44.2°F6.8°C 42.1°F5.6°C 92% 2.2 mph ESE3.5 kmh ESE 4.9 mph7.9 kmh 28.91 in979.0 mb 0.01 in0.3 mm 0.00 in0.0 mm 0.08 in2.0 mm
08:20 AM 44.1°F6.7°C 41.9°F5.5°C 92% 1.9 mph ENE3.1 kmh ENE 3.4 mph5.5 kmh 28.91 in979.0 mb 0.01 in0.3 mm 0.00 in0.0 mm 0.08 in2.0 mm
08:30 AM 43.9°F6.6°C 41.7°F5.4°C 92% 2.1 mph NW3.4 kmh NW 3.4 mph5.5 kmh 28.92 in979.3 mb 0.01 in0.3 mm 0.00 in0.0 mm 0.08 in2.0 mm
08:40 AM 43.7°F6.5°C 41.2°F5.1°C 91% 2.4 mph SE3.9 kmh SE 4.9 mph7.9 kmh 28.93 in979.7 mb 0.01 in0.3 mm 0.00 in0.0 mm 0.08 in2.0 mm
08:50 AM 43.5°F6.4°C 41.1°F5.1°C 91% 2.2 mph WNW3.5 kmh WNW 4.2 mph6.8 kmh 28.93 in979.7 mb 0.01 in0.3 mm 0.00 in0.0 mm 0.08 in2.0 mm
09:00 AM 43.5°F6.4°C 41.1°F5.1°C 91% 2.7 mph W4.3 kmh W 4.2 mph6.8 kmh 28.93 in979.7 mb 0.00 in0.0 mm 0.00 in0.0 mm 0.08 in2.0 mm
09:10 AM 43.7°F6.5°C 41.5°F5.3°C 92% 1.9 mph SSE3.1 kmh SSE 3.4 mph5.5 kmh 28.95 in980.4 mb 0.00 in0.0 mm 0.00 in0.0 mm 0.08 in2.0 mm
09:20 AM 44.1°F6.7°C 41.9°F5.5°C 92% 1.8 mph NE2.9 kmh NE 4.9 mph7.9 kmh 28.95 in980.4 mb 0.00 in0.0 mm 0.00 in0.0 mm 0.08 in2.0 mm
09:30 AM 44.6°F7.0°C 41.3°F5.2°C 88% 1.3 mph W2.1 kmh W 2.5 mph4.0 kmh 28.95 in980.4 mb 0.00 in0.0 mm 0.00 in0.0 mm 0.08 in2.0 mm
09:40 AM 44.8°F7.1°C 41.4°F5.2°C 88% 1.0 mph S1.6 kmh S 2.5 mph4.0 kmh 28.96 in980.7 mb 0.00 in0.0 mm 0.00 in0.0 mm 0.08 in2.0 mm
09:50 AM 44.8°F7.1°C 41.4°F5.2°C 88% 2.0 mph SSW3.2 kmh SSW 3.4 mph5.5 kmh 28.97 in981.0 mb 0.00 in0.0 mm 0.00 in0.0 mm 0.08 in2.0 mm
10:00 AM 44.8°F7.1°C 41.4°F5.2°C 88% 1.7 mph SSW2.7 kmh SSW 3.4 mph5.5 kmh 28.97 in981.0 mb 0.00 in0.0 mm 0.00 in0.0 mm 0.08 in2.0 mm
10:10 AM 44.8°F7.1°C 41.4°F5.2°C 88% 1.1 mph SW1.8 kmh SW 2.5 mph4.0 kmh 28.98 in981.4 mb 0.00 in0.0 mm 0.00 in0.0 mm 0.08 in2.0 mm
10:20 AM 45.0°F7.2°C 41.6°F5.3°C 88% 1.3 mph S2.1 kmh S 2.5 mph4.0 kmh 28.98 in981.4 mb 0.00 in0.0 mm 0.00 in0.0 mm 0.08 in2.0 mm
10:30 AM 45.0°F7.2°C 41.6°F5.3°C 88% 1.6 mph SW2.6 kmh SW 2.5 mph4.0 kmh 28.99 in981.7 mb 0.00 in0.0 mm 0.00 in0.0 mm 0.08 in2.0 mm
10:40 AM 45.0°F7.2°C 41.6°F5.3°C 88% 3.0 mph ESE4.8 kmh ESE 4.9 mph7.9 kmh 29.00 in982.1 mb 0.00 in0.0 mm 0.00 in0.0 mm 0.08 in2.0 mm
10:50 AM 44.8°F7.1°C 41.4°F5.2°C 88% 3.5 mph SW5.6 kmh SW 4.2 mph6.8 kmh 29.00 in982.1 mb 0.00 in0.0 mm 0.00 in0.0 mm 0.08 in2.0 mm
11:00 AM 44.6°F7.0°C 41.3°F5.2°C 88% 3.5 mph S5.6 kmh S 4.2 mph6.8 kmh 29.00 in982.1 mb 0.00 in0.0 mm 0.00 in0.0 mm 0.08 in2.0 mm
11:10 AM 44.4°F6.9°C 42.2°F5.7°C 92% 3.1 mph S5.0 kmh S 5.9 mph9.5 kmh 29.00 in982.1 mb 0.00 in0.0 mm 0.00 in0.0 mm 0.08 in2.0 mm
11:20 AM 44.4°F6.9°C 42.2°F5.7°C 92% 4.4 mph SSW7.1 kmh SSW 5.9 mph9.5 kmh 29.00 in982.1 mb 0.00 in0.0 mm 0.00 in0.0 mm 0.08 in2.0 mm
11:30 AM 44.6°F7.0°C 41.3°F5.2°C 88% 3.1 mph SSW5.0 kmh SSW 3.4 mph5.5 kmh 29.00 in982.1 mb 0.00 in0.0 mm 0.00 in0.0 mm 0.08 in2.0 mm
11:40 AM 44.8°F7.1°C 41.4°F5.2°C 88% 3.8 mph WSW6.1 kmh WSW 6.6 mph10.6 kmh 29.01 in982.4 mb 0.00 in0.0 mm 0.00 in0.0 mm 0.08 in2.0 mm
11:50 AM 45.0°F7.2°C 41.6°F5.3°C 88% 4.7 mph SW7.6 kmh SW 4.9 mph7.9 kmh 29.01 in982.4 mb 0.00 in0.0 mm 0.00 in0.0 mm 0.08 in2.0 mm
12:00 PM 45.0°F7.2°C 41.6°F5.3°C 88% 4.9 mph S7.9 kmh S 5.9 mph9.5 kmh 29.02 in982.7 mb 0.00 in0.0 mm 0.00 in0.0 mm 0.08 in2.0 mm
12:10 PM 45.1°F7.3°C 41.8°F5.4°C 88% 5.0 mph WSW8.0 kmh WSW 5.9 mph9.5 kmh 29.02 in982.7 mb 0.00 in0.0 mm 0.00 in0.0 mm 0.08 in2.0 mm
12:20 PM 45.3°F7.4°C 42.0°F5.6°C 88% 5.1 mph SSW8.2 kmh SSW 7.6 mph12.2 kmh 29.02 in982.7 mb 0.00 in0.0 mm 0.00 in0.0 mm 0.08 in2.0 mm
12:30 PM 45.7°F7.6°C 42.3°F5.7°C 88% 4.7 mph SW7.6 kmh SW 7.6 mph12.2 kmh 29.02 in982.7 mb 0.00 in0.0 mm 0.00 in0.0 mm 0.08 in2.0 mm
12:40 PM 45.7°F7.6°C 42.3°F5.7°C 88% 4.3 mph S6.9 kmh S 7.6 mph12.2 kmh 29.02 in982.7 mb 0.00 in0.0 mm 0.00 in0.0 mm 0.08 in2.0 mm
12:50 PM 45.9°F7.7°C 42.5°F5.8°C 88% 4.3 mph SSW6.9 kmh SSW 5.9 mph9.5 kmh 29.02 in982.7 mb 0.00 in0.0 mm 0.00 in0.0 mm 0.08 in2.0 mm
01:00 PM 45.9°F7.7°C 42.5°F5.8°C 88% 5.1 mph SW8.2 kmh SW 7.6 mph12.2 kmh 29.04 in983.4 mb 0.00 in0.0 mm 0.00 in0.0 mm 0.08 in2.0 mm
01:10 PM 45.9°F7.7°C 42.2°F5.7°C 87% 4.0 mph S6.4 kmh S 4.2 mph6.8 kmh 29.03 in983.1 mb 0.00 in0.0 mm 0.00 in0.0 mm 0.08 in2.0 mm
01:20 PM 45.7°F7.6°C 42.0°F5.6°C 87% 4.9 mph S7.9 kmh S 6.6 mph10.6 kmh 29.04 in983.4 mb 0.00 in0.0 mm 0.00 in0.0 mm 0.08 in2.0 mm
01:30 PM 45.7°F7.6°C 41.7°F5.4°C 86% 4.0 mph W6.4 kmh W 5.9 mph9.5 kmh 29.05 in983.7 mb 0.00 in0.0 mm 0.00 in0.0 mm 0.08 in2.0 mm
01:40 PM 45.5°F7.5°C 41.3°F5.2°C 85% 4.7 mph SSW7.6 kmh SSW 6.6 mph10.6 kmh 29.05 in983.7 mb 0.00 in0.0 mm 0.00 in0.0 mm 0.08 in2.0 mm
01:50 PM 45.5°F7.5°C 40.9°F4.9°C 84% 3.4 mph S5.5 kmh S 4.2 mph6.8 kmh 29.05 in983.7 mb 0.00 in0.0 mm 0.00 in0.0 mm 0.08 in2.0 mm
02:00 PM 45.5°F7.5°C 40.6°F4.8°C 83% 4.9 mph S7.9 kmh S 6.6 mph10.6 kmh 29.06 in984.1 mb 0.00 in0.0 mm 0.00 in0.0 mm 0.08 in2.0 mm
02:10 PM 45.5°F7.5°C 40.3°F4.6°C 82% 4.0 mph SW6.4 kmh SW 7.6 mph12.2 kmh 29.06 in984.1 mb 0.00 in0.0 mm 0.00 in0.0 mm 0.08 in2.0 mm
02:20 PM 45.3°F7.4°C 39.8°F4.3°C 81% 3.4 mph S5.5 kmh S 4.9 mph7.9 kmh 29.06 in984.1 mb 0.00 in0.0 mm 0.00 in0.0 mm 0.08 in2.0 mm
02:30 PM 45.1°F7.3°C 39.3°F4.1°C 80% 3.7 mph S6.0 kmh S 4.9 mph7.9 kmh 29.07 in984.4 mb 0.00 in0.0 mm 0.00 in0.0 mm 0.08 in2.0 mm
02:40 PM 45.0°F7.2°C 39.2°F4.0°C 80% 3.2 mph SW5.1 kmh SW 4.2 mph6.8 kmh 29.07 in984.4 mb 0.00 in0.0 mm 0.00 in0.0 mm 0.08 in2.0 mm
02:50 PM 44.8°F7.1°C 38.7°F3.7°C 79% 1.4 mph SW2.3 kmh SW 2.5 mph4.0 kmh 29.07 in984.4 mb 0.00 in0.0 mm 0.00 in0.0 mm 0.08 in2.0 mm
03:00 PM 44.4°F6.9°C 39.9°F4.4°C 84% 2.5 mph WSW4.0 kmh WSW 4.2 mph6.8 kmh 29.08 in984.8 mb 0.00 in0.0 mm 0.00 in0.0 mm 0.08 in2.0 mm
03:10 PM 44.2°F6.8°C 39.4°F4.1°C 83% 1.5 mph SSW2.4 kmh SSW 3.4 mph5.5 kmh 29.09 in985.1 mb 0.00 in0.0 mm 0.00 in0.0 mm 0.08 in2.0 mm
03:20 PM 43.9°F6.6°C 39.1°F3.9°C 83% 2.0 mph WSW3.2 kmh WSW 2.5 mph4.0 kmh 29.08 in984.8 mb 0.00 in0.0 mm 0.00 in0.0 mm 0.08 in2.0 mm
03:30 PM 43.5°F6.4°C 38.7°F3.7°C 83% 2.2 mph WSW3.5 kmh WSW 3.4 mph5.5 kmh 29.09 in985.1 mb 0.00 in0.0 mm 0.00 in0.0 mm 0.08 in2.0 mm
03:40 PM 43.3°F6.3°C 38.5°F3.6°C 83% 2.8 mph SW4.5 kmh SW 3.4 mph5.5 kmh 29.10 in985.4 mb 0.00 in0.0 mm 0.00 in0.0 mm 0.08 in2.0 mm
03:50 PM 43.0°F6.1°C 38.2°F3.4°C 83% 1.4 mph S2.3 kmh S 2.5 mph4.0 kmh 29.11 in985.8 mb 0.00 in0.0 mm 0.00 in0.0 mm 0.08 in2.0 mm
04:00 PM 42.4°F5.8°C 37.9°F3.3°C 84% 1.2 mph SW1.9 kmh SW 2.5 mph4.0 kmh 29.12 in986.1 mb 0.00 in0.0 mm 0.00 in0.0 mm 0.08 in2.0 mm
04:10 PM 42.1°F5.6°C 37.6°F3.1°C 84% 1.9 mph SW3.1 kmh SW 2.5 mph4.0 kmh 29.12 in986.1 mb 0.00 in0.0 mm 0.00 in0.0 mm 0.08 in2.0 mm
04:20 PM 41.9°F5.5°C 37.4°F3.0°C 84% 1.4 mph SW2.3 kmh SW 2.5 mph4.0 kmh 29.13 in986.5 mb 0.00 in0.0 mm 0.00 in0.0 mm 0.08 in2.0 mm
04:30 PM 41.9°F5.5°C 37.4°F3.0°C 84% 1.3 mph WSW2.1 kmh WSW 1.7 mph2.7 kmh 29.13 in986.5 mb 0.00 in0.0 mm 0.00 in0.0 mm 0.08 in2.0 mm
04:40 PM 41.7°F5.4°C 37.2°F2.9°C 84% 0.5 mph SW0.8 kmh SW 1.7 mph2.7 kmh 29.13 in986.5 mb 0.00 in0.0 mm 0.00 in0.0 mm 0.08 in2.0 mm
04:50 PM 41.4°F5.2°C 36.9°F2.7°C 84% 0.7 mph S1.1 kmh S 1.7 mph2.7 kmh 29.13 in986.5 mb 0.00 in0.0 mm 0.00 in0.0 mm 0.08 in2.0 mm
05:00 PM 41.0°F5.0°C 36.5°F2.5°C 84% 0.7 mph SSW1.1 kmh SSW 2.5 mph4.0 kmh 29.14 in986.8 mb 0.00 in0.0 mm 0.00 in0.0 mm 0.08 in2.0 mm
05:10 PM 40.6°F4.8°C 36.2°F2.3°C 84% 0.5 mph WSW0.8 kmh WSW 1.7 mph2.7 kmh 29.14 in986.8 mb 0.00 in0.0 mm 0.00 in0.0 mm 0.08 in2.0 mm
05:20 PM 40.5°F4.7°C 36.0°F2.2°C 84% 0.5 mph S0.8 kmh S 1.7 mph2.7 kmh 29.14 in986.8 mb 0.00 in0.0 mm 0.00 in0.0 mm 0.08 in2.0 mm
05:30 PM 40.3°F4.6°C 35.8°F2.1°C 84% 0.9 mph SW1.4 kmh SW 1.7 mph2.7 kmh 29.15 in987.1 mb 0.00 in0.0 mm 0.00 in0.0 mm 0.08 in2.0 mm
05:40 PM 40.1°F4.5°C 36.0°F2.2°C 85% 1.1 mph SSW1.8 kmh SSW 2.5 mph4.0 kmh 29.16 in987.5 mb 0.00 in0.0 mm 0.00 in0.0 mm 0.08 in2.0 mm
05:50 PM 39.7°F4.3°C 35.6°F2.0°C 85% 0.9 mph S1.4 kmh S 1.7 mph2.7 kmh 29.16 in987.5 mb 0.00 in0.0 mm 0.00 in0.0 mm 0.08 in2.0 mm
06:00 PM 39.7°F4.3°C 35.6°F2.0°C 85% 1.2 mph SW1.9 kmh SW 1.7 mph2.7 kmh 29.16 in987.5 mb 0.00 in0.0 mm 0.00 in0.0 mm 0.08 in2.0 mm
06:10 PM 40.1°F4.5°C 36.0°F2.2°C 85% 2.0 mph SSE3.2 kmh SSE 3.4 mph5.5 kmh 29.16 in987.5 mb 0.00 in0.0 mm 0.00 in0.0 mm 0.08 in2.0 mm
06:20 PM 40.5°F4.7°C 36.6°F2.6°C 86% 2.0 mph S3.2 kmh S 2.5 mph4.0 kmh 29.17 in987.8 mb 0.00 in0.0 mm 0.00 in0.0 mm 0.08 in2.0 mm
06:30 PM 40.5°F4.7°C 36.6°F2.6°C 86% 1.9 mph SSE3.1 kmh SSE 2.5 mph4.0 kmh 29.17 in987.8 mb 0.00 in0.0 mm 0.00 in0.0 mm 0.08 in2.0 mm
06:40 PM 40.5°F4.7°C 36.6°F2.6°C 86% 1.4 mph S2.3 kmh S 3.4 mph5.5 kmh 29.17 in987.8 mb 0.00 in0.0 mm 0.00 in0.0 mm 0.08 in2.0 mm
06:50 PM 40.8°F4.9°C 37.3°F2.9°C 87% 1.9 mph S3.1 kmh S 2.5 mph4.0 kmh 29.18 in988.1 mb 0.00 in0.0 mm 0.00 in0.0 mm 0.08 in2.0 mm
07:00 PM 40.8°F4.9°C 37.3°F2.9°C 87% 1.3 mph S2.1 kmh S 2.5 mph4.0 kmh 29.18 in988.1 mb 0.00 in0.0 mm 0.00 in0.0 mm 0.08 in2.0 mm
07:10 PM 40.8°F4.9°C 37.3°F2.9°C 87% Calm Calm 0.7 mph1.1 kmh 29.18 in988.1 mb 0.00 in0.0 mm 0.00 in0.0 mm 0.08 in2.0 mm
07:20 PM 40.8°F4.9°C 37.3°F2.9°C 87% 0.3 mph SW0.5 kmh SW 1.7 mph2.7 kmh 29.18 in988.1 mb 0.00 in0.0 mm 0.00 in0.0 mm 0.08 in2.0 mm
07:30 PM 40.8°F4.9°C 37.3°F2.9°C 87% 0.1 mph SW0.2 kmh SW 1.7 mph2.7 kmh 29.19 in988.5 mb 0.00 in0.0 mm 0.00 in0.0 mm 0.08 in2.0 mm
07:40 PM 40.6°F4.8°C 37.1°F2.8°C 87% Calm Calm -- 29.19 in988.5 mb 0.00 in0.0 mm 0.00 in0.0 mm 0.08 in2.0 mm
07:50 PM 40.6°F4.8°C 37.1°F2.8°C 87% 0.4 mph S0.6 kmh S 1.7 mph2.7 kmh 29.20 in988.8 mb 0.00 in0.0 mm 0.00 in0.0 mm 0.08 in2.0 mm
08:00 PM 40.8°F4.9°C 37.5°F3.1°C 88% 0.8 mph S1.3 kmh S 2.5 mph4.0 kmh 29.20 in988.8 mb 0.00 in0.0 mm 0.00 in0.0 mm 0.08 in2.0 mm
08:10 PM 41.0°F5.0°C 37.7°F3.2°C 88% 2.0 mph SW3.2 kmh SW 2.5 mph4.0 kmh 29.21 in989.2 mb 0.00 in0.0 mm 0.00 in0.0 mm 0.08 in2.0 mm
08:20 PM 41.5°F5.3°C 38.3°F3.5°C 88% 1.8 mph SW2.9 kmh SW 2.5 mph4.0 kmh 29.21 in989.2 mb 0.00 in0.0 mm 0.00 in0.0 mm 0.08 in2.0 mm
08:30 PM 42.1°F5.6°C 39.1°F3.9°C 89% 3.7 mph SSW6.0 kmh SSW 4.2 mph6.8 kmh 29.22 in989.5 mb 0.00 in0.0 mm 0.00 in0.0 mm 0.08 in2.0 mm
08:40 PM 42.3°F5.7°C 39.2°F4.0°C 89% 3.7 mph SW6.0 kmh SW 3.4 mph5.5 kmh 29.22 in989.5 mb 0.00 in0.0 mm 0.00 in0.0 mm 0.08 in2.0 mm
08:50 PM 42.4°F5.8°C 39.4°F4.1°C 89% 3.0 mph W4.8 kmh W 3.4 mph5.5 kmh 29.22 in989.5 mb 0.00 in0.0 mm 0.00 in0.0 mm 0.08 in2.0 mm
09:00 PM 42.6°F5.9°C 39.6°F4.2°C 89% 3.1 mph SW5.0 kmh SW 4.9 mph7.9 kmh 29.22 in989.5 mb 0.00 in0.0 mm 0.00 in0.0 mm 0.08 in2.0 mm
09:10 PM 42.8°F6.0°C 39.8°F4.3°C 89% 4.3 mph SW6.9 kmh SW 4.2 mph6.8 kmh 29.23 in989.8 mb 0.00 in0.0 mm 0.00 in0.0 mm 0.08 in2.0 mm
09:20 PM 43.0°F6.1°C 40.2°F4.6°C 90% 4.5 mph W7.2 kmh W 5.9 mph9.5 kmh 29.23 in989.8 mb 0.00 in0.0 mm 0.00 in0.0 mm 0.08 in2.0 mm
09:30 PM 43.2°F6.2°C 40.4°F4.7°C 90% 4.1 mph SW6.6 kmh SW 4.2 mph6.8 kmh 29.24 in990.2 mb 0.00 in0.0 mm 0.00 in0.0 mm 0.08 in2.0 mm
09:40 PM 43.2°F6.2°C 40.4°F4.7°C 90% 4.1 mph SW6.6 kmh SW 5.9 mph9.5 kmh 29.24 in990.2 mb 0.00 in0.0 mm 0.00 in0.0 mm 0.08 in2.0 mm
09:50 PM 43.3°F6.3°C 40.6°F4.8°C 90% 4.4 mph SW7.1 kmh SW 4.9 mph7.9 kmh 29.25 in990.5 mb 0.00 in0.0 mm 0.00 in0.0 mm 0.08 in2.0 mm
10:00 PM 43.5°F6.4°C 40.8°F4.9°C 90% 4.2 mph SW6.8 kmh SW 5.9 mph9.5 kmh 29.25 in990.5 mb 0.00 in0.0 mm 0.00 in0.0 mm 0.08 in2.0 mm
10:10 PM 43.5°F6.4°C 40.8°F4.9°C 90% 5.2 mph SW8.4 kmh SW 5.9 mph9.5 kmh 29.26 in990.9 mb 0.00 in0.0 mm 0.00 in0.0 mm 0.08 in2.0 mm
10:20 PM 43.5°F6.4°C 40.8°F4.9°C 90% 4.6 mph WSW7.4 kmh WSW 5.9 mph9.5 kmh 29.26 in990.9 mb 0.00 in0.0 mm 0.00 in0.0 mm 0.08 in2.0 mm
10:30 PM 43.5°F6.4°C 40.5°F4.7°C 89% 4.3 mph SSW6.9 kmh SSW 4.9 mph7.9 kmh 29.27 in991.2 mb 0.00 in0.0 mm 0.00 in0.0 mm 0.08 in2.0 mm
10:40 PM 43.5°F6.4°C 40.5°F4.7°C 89% 4.2 mph SW6.8 kmh SW 4.9 mph7.9 kmh 29.28 in991.5 mb 0.00 in0.0 mm 0.00 in0.0 mm 0.08 in2.0 mm
10:50 PM 43.7°F6.5°C 40.7°F4.8°C 89% 5.0 mph WSW8.0 kmh WSW 6.6 mph10.6 kmh 29.28 in991.5 mb 0.00 in0.0 mm 0.00 in0.0 mm 0.08 in2.0 mm
11:00 PM 43.7°F6.5°C 40.7°F4.8°C 89% 5.5 mph SSW8.9 kmh SSW 7.6 mph12.2 kmh 29.29 in991.9 mb 0.00 in0.0 mm 0.00 in0.0 mm 0.08 in2.0 mm
11:10 PM 43.7°F6.5°C 40.7°F4.8°C 89% 6.0 mph SW9.7 kmh SW 6.6 mph10.6 kmh 29.30 in992.2 mb 0.00 in0.0 mm 0.00 in0.0 mm 0.08 in2.0 mm
11:20 PM 43.7°F6.5°C 40.4°F4.7°C 88% 3.2 mph SW5.1 kmh SW 4.9 mph7.9 kmh 29.31 in992.6 mb 0.00 in0.0 mm 0.00 in0.0 mm 0.08 in2.0 mm
11:30 PM 43.7°F6.5°C 40.4°F4.7°C 88% 3.7 mph WSW6.0 kmh WSW 4.9 mph7.9 kmh 29.30 in992.2 mb 0.00 in0.0 mm 0.00 in0.0 mm 0.08 in2.0 mm
11:40 PM 43.7°F6.5°C 40.4°F4.7°C 88% 4.4 mph WSW7.1 kmh WSW 4.9 mph7.9 kmh 29.31 in992.6 mb 0.00 in0.0 mm 0.00 in0.0 mm 0.08 in2.0 mm
11:50 PM 43.5°F6.4°C 40.2°F4.6°C 88% 4.3 mph SW6.9 kmh SW 4.9 mph7.9 kmh 29.32 in992.9 mb 0.00 in0.0 mm 0.00 in0.0 mm 0.08 in2.0 mm